^^
Your Local Weather - Clay, NY Station Historical Data
Daily Summary for September 25, 2017 Units:  English    Metric   Both
« Previous Day
Next Day »
Daily Weekly Monthly Yearly Custom
  High: Low: Average:
Temperature: 87.9 °F 60.3 °F 70.5 °F
Dew Point: 70.3 °F 58.6 °F 64.4 °F
Humidity: 95% 46% 83%
Wind Speed: 2.0mph 0.0mph 0.3mph
Wind Gust: 6.0mph - -
Wind- - SE
Pressure: 30.07 in 29.95 in -
Precipitation: 0.00 in    
Historical Graphs
 
 
Tabular Data for September 25, 2017
Time Temperature Dew Point Pressure Wind Wind Speed Wind Gust Humidity Rainfall Rate (Hourly) solar
00:02 65.5 °F 63.1 °F 30.04 in Calm     92% 0.00 in 0 W/m2
00:08 65.6 °F 63.5 °F 30.04 in Calm     93% 0.00 in 0 W/m2
00:14 65.6 °F 63.5 °F 30.04 in Calm     93% 0.00 in 0 W/m2
00:20 65.5 °F 63.4 °F 30.03 in Calm     93% 0.00 in 0 W/m2
00:26 65.2 °F 63.1 °F 30.04 in Calm     93% 0.00 in 0 W/m2
00:32 65.0 °F 62.9 °F 30.03 in Calm     93% 0.00 in 0 W/m2
00:38 64.9 °F 62.8 °F 30.03 in Calm     93% 0.00 in 0 W/m2
00:44 64.7 °F 62.6 °F 30.03 in Calm     93% 0.00 in 0 W/m2
00:48 64.6 °F 62.5 °F 30.03 in Calm     93% 0.00 in 0 W/m2
00:54 64.6 °F 62.5 °F 30.03 in Calm     93% 0.00 in 0 W/m2
01:00 64.7 °F 62.6 °F 30.03 in Calm     93% 0.00 in 0 W/m2
01:06 64.6 °F 62.5 °F 30.04 in Calm     93% 0.00 in 0 W/m2
01:12 64.4 °F 62.3 °F 30.04 in Calm     93% 0.00 in 0 W/m2
01:18 64.2 °F 62.1 °F 30.04 in Calm     93% 0.00 in 0 W/m2
01:24 64.1 °F 62.0 °F 30.03 in Calm     93% 0.00 in 0 W/m2
01:30 63.9 °F 61.8 °F 30.03 in Calm     93% 0.00 in 0 W/m2
01:36 63.9 °F 61.8 °F 30.04 in Calm     93% 0.00 in 0 W/m2
01:42 63.9 °F 61.8 °F 30.04 in Calm     93% 0.00 in 0 W/m2
01:48 64.0 °F 61.9 °F 30.04 in Calm     93% 0.00 in 0 W/m2
01:54 63.9 °F 61.8 °F 30.04 in Calm     93% 0.00 in 0 W/m2
02:00 63.7 °F 61.6 °F 30.03 in Calm     93% 0.00 in 0 W/m2
02:06 63.8 °F 61.7 °F 30.03 in Calm     93% 0.00 in 0 W/m2
02:12 63.8 °F 62.0 °F 30.03 in Calm     94% 0.00 in 0 W/m2
02:18 63.7 °F 61.9 °F 30.03 in Calm     94% 0.00 in 0 W/m2
02:24 63.6 °F 61.8 °F 30.03 in Calm     94% 0.00 in 0 W/m2
02:30 63.6 °F 61.8 °F 30.03 in Calm     94% 0.00 in 0 W/m2
02:36 63.4 °F 61.3 °F 30.03 in Calm     93% 0.00 in 0 W/m2
02:42 63.3 °F 61.2 °F 30.03 in Calm     93% 0.00 in 0 W/m2
02:48 63.4 °F 61.6 °F 30.03 in Calm     94% 0.00 in 0 W/m2
02:54 63.3 °F 61.5 °F 30.03 in Calm     94% 0.00 in 0 W/m2
03:00 63.1 °F 61.3 °F 30.03 in Calm     94% 0.00 in 0 W/m2
03:06 63.0 °F 61.2 °F 30.03 in Calm     94% 0.00 in 0 W/m2
03:12 63.0 °F 61.2 °F 30.03 in Calm     94% 0.00 in 0 W/m2
03:18 62.9 °F 61.1 °F 30.03 in Calm     94% 0.00 in 0 W/m2
03:24 62.8 °F 61.0 °F 30.03 in Calm     94% 0.00 in 0 W/m2
03:30 62.8 °F 61.0 °F 30.03 in Calm     94% 0.00 in 0 W/m2
03:36 62.7 °F 60.9 °F 30.02 in Calm     94% 0.00 in 0 W/m2
03:42 62.5 °F 60.7 °F 30.02 in Calm     94% 0.00 in 0 W/m2
03:48 62.3 °F 60.6 °F 30.02 in Calm     94% 0.00 in 0 W/m2
03:54 62.2 °F 60.5 °F 30.03 in Calm     94% 0.00 in 0 W/m2
04:00 62.0 °F 60.3 °F 30.03 in Calm     94% 0.00 in 0 W/m2
04:06 62.0 °F 60.3 °F 30.03 in Calm     94% 0.00 in 0 W/m2
04:12 62.0 °F 60.3 °F 30.03 in Calm     94% 0.00 in 0 W/m2
04:18 62.0 °F 60.3 °F 30.02 in Calm     94% 0.00 in 0 W/m2
04:24 61.8 °F 60.1 °F 30.03 in Calm     94% 0.00 in 0 W/m2
04:30 61.7 °F 60.0 °F 30.03 in Calm     94% 0.00 in 0 W/m2
04:36 61.6 °F 59.9 °F 30.03 in Calm     94% 0.00 in 0 W/m2
04:42 61.6 °F 59.9 °F 30.03 in Calm     94% 0.00 in 0 W/m2
04:48 61.6 °F 59.9 °F 30.03 in Calm     94% 0.00 in 0 W/m2
04:54 61.5 °F 59.8 °F 30.03 in Calm     94% 0.00 in 0 W/m2
05:03 61.3 °F 59.6 °F 30.03 in Calm     94% 0.00 in 0 W/m2
05:08 61.3 °F 59.6 °F 30.03 in Calm     94% 0.00 in 0 W/m2
05:14 61.3 °F 59.6 °F 30.03 in Calm     94% 0.00 in 0 W/m2
05:20 61.2 °F 59.5 °F 30.03 in Calm     94% 0.00 in 0 W/m2
05:26 61.1 °F 59.4 °F 30.03 in Calm     94% 0.00 in 0 W/m2
05:32 61.1 °F 59.4 °F 30.03 in Calm     94% 0.00 in 0 W/m2
05:38 60.9 °F 59.2 °F 30.03 in Calm     94% 0.00 in 0 W/m2
05:44 60.7 °F 59.0 °F 30.03 in Calm     94% 0.00 in 0 W/m2
05:50 60.6 °F 58.9 °F 30.03 in Calm     94% 0.00 in 0 W/m2
05:56 60.6 °F 58.9 °F 30.03 in Calm     94% 0.00 in 0 W/m2
06:08 60.6 °F 58.9 °F 30.03 in Calm     94% 0.00 in 0 W/m2
06:14 60.6 °F 58.9 °F 30.03 in Calm     94% 0.00 in 0 W/m2
06:20 60.6 °F 58.9 °F 30.03 in Calm     94% 0.00 in 0 W/m2
06:26 60.6 °F 59.2 °F 30.03 in Calm     95% 0.00 in 0 W/m2
06:32 60.6 °F 59.2 °F 30.04 in Calm     95% 0.00 in 0 W/m2
06:38 60.4 °F 58.7 °F 30.04 in Calm     94% 0.00 in 0 W/m2
06:44 60.4 °F 58.7 °F 30.05 in Calm     94% 0.00 in 0 W/m2
06:50 60.5 °F 58.8 °F 30.05 in Calm     94% 0.00 in 0 W/m2
06:56 60.6 °F 59.2 °F 30.05 in Calm     95% 0.00 in 0 W/m2
07:02 60.4 °F 58.7 °F 30.05 in Calm     94% 0.00 in 7 W/m2
07:08 60.3 °F 58.6 °F 30.05 in Calm     94% 0.00 in 11 W/m2
07:14 60.4 °F 59.0 °F 30.05 in Calm     95% 0.00 in 12 W/m2
07:20 60.6 °F 59.2 °F 30.05 in Calm     95% 0.00 in 16 W/m2
07:26 60.7 °F 59.3 °F 30.05 in Calm     95% 0.00 in 19 W/m2
07:32 60.8 °F 59.4 °F 30.05 in Calm     95% 0.00 in 23 W/m2
07:38 60.9 °F 59.5 °F 30.05 in Calm     95% 0.00 in 28 W/m2
07:44 60.9 °F 59.5 °F 30.05 in Calm     95% 0.00 in 32 W/m2
07:50 61.4 °F 60.0 °F 30.05 in Calm     95% 0.00 in 33 W/m2
07:56 61.7 °F 60.3 °F 30.05 in Calm     95% 0.00 in 37 W/m2
08:02 62.1 °F 60.7 °F 30.06 in Calm     95% 0.00 in 54 W/m2
08:08 62.4 °F 60.9 °F 30.06 in Calm     95% 0.00 in 53 W/m2
08:14 62.8 °F 61.3 °F 30.06 in Calm     95% 0.00 in 74 W/m2
08:20 63.5 °F 62.0 °F 30.06 in Calm     95% 0.00 in 53 W/m2
08:26 63.9 °F 62.4 °F 30.05 in Calm     95% 0.00 in 54 W/m2
08:32 64.3 °F 62.8 °F 30.06 in Calm     95% 0.00 in 155 W/m2
08:38 64.8 °F 63.3 °F 30.06 in Calm     95% 0.00 in 95 W/m2
08:44 65.3 °F 63.8 °F 30.06 in Calm     95% 0.00 in 58 W/m2
08:50 65.8 °F 64.3 °F 30.06 in Calm     95% 0.00 in 81 W/m2
08:56 66.1 °F 64.6 °F 30.06 in Calm     95% 0.00 in 104 W/m2
09:04 66.7 °F 65.2 °F 30.06 in Calm     95% 0.00 in 70 W/m2
09:10 67.2 °F 65.7 °F 30.06 in Calm   1.0 mph 95% 0.00 in 77 W/m2
09:16 67.5 °F 66.0 °F 30.07 in Calm   2.0 mph 95% 0.00 in 67 W/m2
09:22 67.9 °F 66.4 °F 30.06 in NNW 1.0 mph 1.0 mph 95% 0.00 in 72 W/m2
09:28 68.7 °F 66.9 °F 30.06 in Calm   1.0 mph 94% 0.00 in 200 W/m2
09:34 69.2 °F 67.1 °F 30.07 in Calm   1.0 mph 93% 0.00 in 130 W/m2
09:40 70.1 °F 67.7 °F 30.06 in Calm     92% 0.00 in 234 W/m2
09:46 71.4 °F 68.0 °F 30.06 in Calm     89% 0.00 in 404 W/m2
09:52 72.8 °F 67.3 °F 30.07 in Calm     83% 0.00 in 411 W/m2
09:58 74.4 °F 67.8 °F 30.06 in Calm   2.0 mph 80% 0.00 in 417 W/m2
10:04 74.5 °F 67.2 °F 30.06 in Calm     78% 0.00 in 489 W/m2
10:10 75.0 °F 67.7 °F 30.06 in NNW 1.0 mph 2.0 mph 78% 0.00 in 439 W/m2
10:16 75.9 °F 68.2 °F 30.06 in NNW 1.0 mph 2.0 mph 77% 0.00 in 418 W/m2
10:22 75.9 °F 68.2 °F 30.06 in Calm   3.0 mph 77% 0.00 in 519 W/m2
10:28 76.2 °F 67.7 °F 30.06 in East 1.0 mph 3.0 mph 75% 0.00 in 570 W/m2
10:34 76.7 °F 68.2 °F 30.05 in East 1.0 mph 2.0 mph 75% 0.00 in 582 W/m2
10:40 78.1 °F 68.3 °F 30.05 in Calm     72% 0.00 in 598 W/m2
10:46 78.8 °F 69.8 °F 30.05 in Calm   1.0 mph 74% 0.00 in 601 W/m2
10:52 78.1 °F 67.9 °F 30.05 in Calm     71% 0.00 in 598 W/m2
10:58 79.4 °F 68.8 °F 30.05 in Calm   5.0 mph 70% 0.00 in 606 W/m2
11:04 79.3 °F 68.7 °F 30.05 in ENE 1.0 mph 2.0 mph 70% 0.00 in 638 W/m2
11:10 80.2 °F 69.1 °F 30.05 in South 1.0 mph 3.0 mph 69% 0.00 in 575 W/m2
11:16 79.7 °F 70.3 °F 30.05 in SSE 1.0 mph 3.0 mph 73% 0.00 in 638 W/m2
11:22 80.2 °F 69.1 °F 30.05 in SSE 1.0 mph 1.0 mph 69% 0.00 in 636 W/m2
11:28 80.6 °F 67.7 °F 30.05 in Calm   2.0 mph 65% 0.00 in 519 W/m2
11:34 80.6 °F 68.6 °F 30.05 in SE 1.0 mph 1.0 mph 67% 0.00 in 635 W/m2
11:40 80.4 °F 68.0 °F 30.05 in NE 1.0 mph 2.0 mph 66% 0.00 in 520 W/m2
15:00 87.7 °F 67.3 °F 29.99 in NNE 1.0 mph 1.0 mph 51% 0.00 in 606 W/m2
15:06 87.5 °F 67.7 °F 29.99 in NNE 2.0 mph 3.0 mph 52% 0.00 in 592 W/m2
15:12 87.4 °F 67.1 °F 29.99 in NE 1.0 mph 2.0 mph 51% 0.00 in 584 W/m2
15:18 87.6 °F 68.4 °F 29.99 in NNE 2.0 mph 3.0 mph 53% 0.00 in 571 W/m2
15:24 87.9 °F 66.4 °F 29.98 in NNE 2.0 mph 5.0 mph 49% 0.00 in 559 W/m2
15:30 87.1 °F 65.6 °F 29.98 in ENE 2.0 mph 2.0 mph 49% 0.00 in 547 W/m2
15:36 87.0 °F 66.1 °F 29.98 in ENE 2.0 mph 4.0 mph 50% 0.00 in 534 W/m2
15:42 87.7 °F 67.9 °F 29.98 in NW 2.0 mph 3.0 mph 52% 0.00 in 519 W/m2
15:48 87.8 °F 67.4 °F 29.98 in North 2.0 mph 3.0 mph 51% 0.00 in 499 W/m2
15:54 87.2 °F 65.7 °F 29.98 in North 2.0 mph 2.0 mph 49% 0.00 in 490 W/m2
16:00 87.4 °F 67.6 °F 29.98 in NE 2.0 mph 2.0 mph 52% 0.00 in 476 W/m2
16:06 87.0 °F 66.1 °F 29.97 in NE 2.0 mph 6.0 mph 50% 0.00 in 462 W/m2
16:12 87.4 °F 65.3 °F 29.97 in North 2.0 mph 2.0 mph 48% 0.00 in 445 W/m2
16:18 87.7 °F 64.4 °F 29.97 in NNE 2.0 mph 2.0 mph 46% 0.00 in 424 W/m2
16:24 87.6 °F 64.9 °F 29.97 in NNE 2.0 mph 2.0 mph 47% 0.00 in 403 W/m2
16:30 87.2 °F 64.5 °F 29.97 in ENE 2.0 mph 3.0 mph 47% 0.00 in 366 W/m2
16:36 87.3 °F 66.4 °F 29.97 in NNW 2.0 mph 3.0 mph 50% 0.00 in 374 W/m2
16:42 87.4 °F 64.7 °F 29.97 in North 2.0 mph 3.0 mph 47% 0.00 in 265 W/m2
16:48 87.0 °F 63.7 °F 29.97 in NNE 2.0 mph 6.0 mph 46% 0.00 in 327 W/m2
16:54 87.2 °F 64.5 °F 29.97 in North 2.0 mph 5.0 mph 47% 0.00 in 323 W/m2
17:00 87.4 °F 65.3 °F 29.97 in North 2.0 mph 2.0 mph 48% 0.00 in 269 W/m2
17:06 86.8 °F 68.2 °F 29.97 in North 2.0 mph 2.0 mph 54% 0.00 in 230 W/m2
17:12 86.0 °F 66.3 °F 29.97 in North 1.0 mph 5.0 mph 52% 0.00 in 244 W/m2
17:18 86.1 °F 65.9 °F 29.97 in NNE 1.0 mph 5.0 mph 51% 0.00 in 255 W/m2
17:24 86.2 °F 66.5 °F 29.97 in NNE 1.0 mph 2.0 mph 52% 0.00 in 239 W/m2
17:30 86.1 °F 66.4 °F 29.97 in NNE 1.0 mph 1.0 mph 52% 0.00 in 100 W/m2
17:36 85.8 °F 68.3 °F 29.97 in Calm   1.0 mph 56% 0.00 in 172 W/m2
17:42 85.4 °F 67.9 °F 29.96 in Calm   1.0 mph 56% 0.00 in 74 W/m2
17:48 84.7 °F 69.3 °F 29.96 in Calm   1.0 mph 60% 0.00 in 107 W/m2
17:54 83.8 °F 69.9 °F 29.96 in Calm     63% 0.00 in 120 W/m2
18:00 82.7 °F 70.2 °F 29.96 in Calm     66% 0.00 in 104 W/m2
18:06 82.0 °F 69.5 °F 29.96 in Calm     66% 0.00 in 42 W/m2
18:12 81.4 °F 69.8 °F 29.96 in Calm     68% 0.00 in 35 W/m2
18:18 80.6 °F 69.5 °F 29.96 in Calm     69% 0.00 in 30 W/m2
18:26 79.8 °F 68.7 °F 29.97 in Calm     69% 0.00 in 26 W/m2
18:32 79.4 °F 69.2 °F 29.97 in Calm     71% 0.00 in 21 W/m2
18:39 79.0 °F 69.2 °F 29.97 in Calm     72% 0.00 in 16 W/m2
18:44 78.6 °F 68.8 °F 29.97 in Calm   1.0 mph 72% 0.00 in 12 W/m2
18:50 78.3 °F 69.3 °F 29.97 in Calm     74% 0.00 in 5 W/m2
18:56 78.0 °F 69.0 °F 29.97 in Calm     74% 0.00 in 0 W/m2
19:02 77.5 °F 68.9 °F 29.97 in Calm     75% 0.00 in 0 W/m2
19:08 76.8 °F 68.7 °F 29.97 in Calm     76% 0.00 in 0 W/m2
19:14 76.2 °F 68.8 °F 29.97 in Calm     78% 0.00 in 0 W/m2
19:20 75.7 °F 68.7 °F 29.97 in Calm     79% 0.00 in 0 W/m2
19:26 75.2 °F 68.2 °F 29.97 in Calm     79% 0.00 in 0 W/m2
19:32 74.7 °F 68.1 °F 29.97 in Calm     80% 0.00 in 0 W/m2
19:38 74.3 °F 68.4 °F 29.97 in Calm     82% 0.00 in 0 W/m2
19:44 73.9 °F 68.4 °F 29.97 in Calm     83% 0.00 in 0 W/m2
19:50 73.5 °F 68.0 °F 29.97 in Calm     83% 0.00 in 0 W/m2
19:56 73.2 °F 68.4 °F 29.97 in Calm     85% 0.00 in 0 W/m2
20:02 72.9 °F 68.1 °F 29.97 in Calm     85% 0.00 in 0 W/m2
20:08 72.6 °F 68.2 °F 29.97 in Calm     86% 0.00 in 0 W/m2
20:14 72.4 °F 68.0 °F 29.97 in Calm     86% 0.00 in 0 W/m2
20:20 72.2 °F 68.1 °F 29.97 in Calm     87% 0.00 in 0 W/m2
20:26 71.9 °F 67.8 °F 29.97 in Calm     87% 0.00 in 0 W/m2
20:32 71.5 °F 67.4 °F 29.97 in Calm     87% 0.00 in 0 W/m2
20:38 71.2 °F 67.1 °F 29.97 in Calm     87% 0.00 in 0 W/m2
20:44 71.0 °F 67.3 °F 29.97 in Calm     88% 0.00 in 0 W/m2
20:50 70.9 °F 67.2 °F 29.97 in Calm     88% 0.00 in 0 W/m2
20:56 70.7 °F 67.3 °F 29.97 in Calm     89% 0.00 in 0 W/m2
21:02 70.4 °F 67.0 °F 29.97 in Calm     89% 0.00 in 0 W/m2
21:08 70.1 °F 66.7 °F 29.97 in Calm     89% 0.00 in 0 W/m2
21:14 69.9 °F 66.5 °F 29.97 in Calm     89% 0.00 in 0 W/m2
21:20 69.7 °F 66.6 °F 29.97 in Calm     90% 0.00 in 0 W/m2
21:26 69.6 °F 66.5 °F 29.97 in Calm     90% 0.00 in 0 W/m2
21:32 69.4 °F 66.3 °F 29.97 in Calm     90% 0.00 in 0 W/m2
21:38 69.2 °F 66.5 °F 29.96 in Calm     91% 0.00 in 0 W/m2
21:44 69.0 °F 66.3 °F 29.96 in Calm     91% 0.00 in 0 W/m2
21:50 68.8 °F 66.1 °F 29.96 in Calm     91% 0.00 in 0 W/m2
21:56 68.7 °F 66.0 °F 29.96 in Calm     91% 0.00 in 0 W/m2
22:02 68.6 °F 65.9 °F 29.96 in Calm     91% 0.00 in 0 W/m2
22:08 68.5 °F 65.8 °F 29.96 in Calm     91% 0.00 in 0 W/m2
22:14 68.6 °F 65.9 °F 29.96 in Calm     91% 0.00 in 0 W/m2
22:20 68.4 °F 65.7 °F 29.96 in Calm     91% 0.00 in 0 W/m2
22:26 68.3 °F 65.9 °F 29.96 in Calm     92% 0.00 in 0 W/m2
22:32 68.2 °F 65.8 °F 29.96 in Calm     92% 0.00 in 0 W/m2
22:38 68.1 °F 65.7 °F 29.96 in Calm     92% 0.00 in 0 W/m2
22:50 68.1 °F 65.7 °F 29.96 in Calm     92% 0.00 in 0 W/m2
22:56 68.0 °F 65.6 °F 29.96 in Calm     92% 0.00 in 0 W/m2
23:02 68.0 °F 65.6 °F 29.96 in Calm     92% 0.00 in 0 W/m2
23:08 67.7 °F 65.3 °F 29.96 in Calm     92% 0.00 in 0 W/m2
23:20 67.3 °F 64.9 °F 29.96 in Calm     92% 0.00 in 0 W/m2
23:30 67.1 °F 64.7 °F 29.96 in Calm     92% 0.00 in 0 W/m2
23:36 66.8 °F 64.4 °F 29.95 in Calm     92% 0.00 in 0 W/m2
23:40 66.7 °F 64.6 °F 29.95 in Calm     93% 0.00 in 0 W/m2
23:46 66.7 °F 64.6 °F 29.96 in Calm     93% 0.00 in 0 W/m2
23:52 66.7 °F 64.6 °F 29.96 in Calm     93% 0.00 in 0 W/m2
23:58 66.6 °F 64.5 °F 29.96 in Calm     93% 0.00 in 0 W/m2
Country Meadow, Clay, NY, USA
Compliments of Weather Underground - 2 mb